Time;durP1;ratioP1;P1;durP2;ratioP2;P2;SDS_P1;SDS_P2;PMS_P1;PMS_P2;Temp;Humidity;BMP_temperature;BMP_pressure;BME280_temperature;BME280_humidity;BME280_pressure;Samples;Min_cycle;Max_cycle;Signal;HPM_P1;HPM_P2
2023/02/16 00:00:30;;;;;;;112.03;40.45;;;;;;;-0.86;100.00;98783.47;5016300;28;20395;-82
2023/02/16 00:03:31;;;;;;;126.43;46.72;;;;;;;-0.38;100.00;98851.00;5012893;28;20028;-84
2023/02/16 00:06:28;;;;;;;129.40;43.63;;;;;;;-0.91;100.00;98770.28;5026098;28;20029;-74
2023/02/16 00:09:50;;;;;;;121.05;45.30;;;;;;;-0.38;100.00;98844.00;5006098;28;20120;-74
2023/02/16 00:15:46;;;;;;;117.80;46.03;;;;;;;-0.92;100.00;98768.53;5034674;28;20106;-75
2023/02/16 00:18:20;;;;;;;116.15;43.70;;;;;;;-0.44;100.00;98846.59;5032049;28;20135;-75
2023/02/16 00:20:46;;;;;;;115.70;42.60;;;;;;;-0.44;100.00;98845.72;5002855;28;20042;-74
2023/02/16 00:23:12;;;;;;;120.90;42.95;;;;;;;-0.56;100.00;98828.19;5049043;28;20025;-75
2023/02/16 00:25:37;;;;;;;103.05;39.53;;;;;;;-0.53;100.00;98846.59;5050102;28;20078;-75
2023/02/16 00:28:06;;;;;;;101.38;40.63;;;;;;;-0.57;100.00;98840.44;5032969;28;20115;-74
2023/02/16 00:30:32;;;;;;;93.10;38.85;;;;;;;-0.56;100.00;98842.22;5033017;28;20052;-73
2023/02/16 00:32:57;;;;;;;105.07;39.95;;;;;;;-0.58;100.00;98851.81;5033004;28;20504;-74
2023/02/16 00:35:23;;;;;;;98.28;38.08;;;;;;;-0.58;100.00;98833.41;5033095;28;20407;-75
2023/02/16 00:37:48;;;;;;;87.25;35.70;;;;;;;-0.57;100.00;98850.94;5033080;28;20554;-75
2023/02/16 00:40:15;;;;;;;91.07;35.95;;;;;;;-0.69;100.00;98832.53;5033026;28;20039;-75
2023/02/16 00:42:42;;;;;;;90.43;36.40;;;;;;;-0.66;100.00;98844.78;5032983;28;20024;-75
2023/02/16 00:45:16;;;;;;;86.72;34.47;;;;;;;-0.57;100.00;98844.81;5032624;28;20025;-74
2023/02/16 00:47:45;;;;;;;85.53;32.38;;;;;;;-0.65;100.00;98846.56;5032935;28;20103;-74
2023/02/16 00:50:26;;;;;;;81.82;31.30;;;;;;;-0.76;100.00;98825.50;5049312;28;20040;-75
2023/02/16 00:52:52;;;;;;;76.72;29.10;;;;;;;-0.84;100.00;98826.34;5034728;28;20056;-75
2023/02/16 00:55:22;;;;;;;76.00;32.25;;;;;;;-0.79;100.00;98846.50;5037023;28;20056;-74
2023/02/16 00:57:51;;;;;;;81.18;31.15;;;;;;;-0.87;100.00;98839.47;5036964;28;20090;-74
2023/02/16 01:00:26;;;;;;;75.97;29.90;;;;;;;-0.91;100.00;98827.19;5053561;28;20140;-74
2023/02/16 01:02:55;;;;;;;77.72;31.08;;;;;;;-0.88;100.00;98835.06;5036866;28;20017;-73
2023/02/16 01:05:20;;;;;;;78.15;29.38;;;;;;;-0.97;100.00;98822.78;5036827;28;20090;-75
2023/02/16 01:13:16;;;;;;;71.85;25.92;;;;;;;-1.00;100.00;98822.78;5053347;28;20036;-75
2023/02/16 01:15:43;;;;;;;80.93;30.02;;;;;;;-0.95;100.00;98838.56;5036768;28;20445;-74
2023/02/16 01:18:12;;;;;;;80.00;30.52;;;;;;;-1.02;100.00;98829.78;5053546;28;20037;-75
2023/02/16 01:20:38;;;;;;;115.63;41.40;;;;;;;-1.08;100.00;98818.38;5063397;28;20052;-74
2023/02/16 01:23:03;;;;;;;115.68;42.15;;;;;;;-1.11;100.00;98804.34;5076551;28;20081;-74
2023/02/16 01:25:29;;;;;;;96.53;35.88;;;;;;;-0.98;100.00;98821.03;5074470;28;20035;-74
2023/02/16 01:27:54;;;;;;;77.85;31.10;;;;;;;-0.98;100.00;98826.28;5073241;28;20035;-74
2023/02/16 01:30:22;;;;;;;74.13;27.40;;;;;;;-0.94;100.00;98822.81;5073266;28;20036;-74
2023/02/16 01:32:50;;;;;;;81.40;30.98;;;;;;;-1.02;100.00;98819.28;5063935;28;20472;-75
2023/02/16 01:35:42;;;;;;;111.95;36.75;;;;;;;-1.00;100.00;98820.16;5081385;28;20492;-74
2023/02/16 01:38:17;;;;;;;93.95;33.30;;;;;;;-1.03;100.00;98817.53;5068342;28;20063;-74
2023/02/16 01:40:48;;;;;;;87.72;31.20;;;;;;;-1.13;100.00;98810.47;5059435;28;20410;-74
2023/02/16 01:43:23;;;;;;;78.13;28.92;;;;;;;-1.14;100.00;98814.81;5068514;28;20392;-74
2023/02/16 01:46:17;;;;;;;60.92;25.17;;;;;;;-1.13;100.00;98821.84;5077560;28;20115;-74
2023/02/16 01:48:42;;;;;;;58.83;25.45;;;;;;;-1.17;100.00;98813.97;5056168;28;20548;-75
2023/02/16 01:51:16;;;;;;;63.08;24.83;;;;;;;-1.45;100.00;98772.72;5062448;28;20122;-74
2023/02/16 01:53:51;;;;;;;62.15;24.75;;;;;;;-1.26;100.00;98813.94;5084219;28;20068;-74
2023/02/16 01:56:35;;;;;;;68.28;27.35;;;;;;;-1.28;100.00;98815.66;5085426;28;20027;-74
2023/02/16 01:59:10;;;;;;;62.67;25.67;;;;;;;-1.36;100.00;98817.34;5087741;28;20101;-74
2023/02/16 02:01:54;;;;;;;58.00;22.17;;;;;;;-1.36;100.00;98822.59;5067389;28;20089;-74
2023/02/16 02:07:22;;;;;;;57.40;21.70;;;;;;;-1.38;100.00;98819.06;5088036;28;20523;-74
2023/02/16 02:10:21;;;;;;;58.60;21.23;;;;;;;-1.42;100.00;98812.09;5063945;28;20025;-74
2023/02/16 02:12:52;;;;;;;52.67;20.55;;;;;;;-1.45;100.00;98812.06;5060092;28;20042;-75
2023/02/16 02:15:22;;;;;;;54.15;21.40;;;;;;;-1.69;100.00;98784.81;5084144;28;20409;-73
2023/02/16 02:17:48;;;;;;;50.72;21.67;;;;;;;-1.53;100.00;98813.75;5075465;28;20024;-74
2023/02/16 02:23:37;;;;;;;55.25;21.15;;;;;;;-1.59;100.00;98814.59;5079379;28;20078;-74
2023/02/16 02:26:36;;;;;;;49.92;21.45;;;;;;;-1.60;100.00;98822.47;5076859;28;20475;-75
2023/02/16 02:29:10;;;;;;;75.97;32.50;;;;;;;-1.58;100.00;98826.84;5062480;28;20028;-74
2023/02/16 02:31:39;;;;;;;65.97;26.02;;;;;;;-1.58;100.00;98810.22;5082819;28;20029;-74
2023/02/16 02:34:35;;;;;;;57.33;24.17;;;;;;;-1.58;100.00;98815.47;5080363;28;20020;-74
2023/02/16 02:37:09;;;;;;;59.70;23.90;;;;;;;-1.59;100.00;98818.97;5072613;28;20032;-74
2023/02/16 02:40:02;;;;;;;54.10;22.42;;;;;;;-1.61;100.00;98816.34;5080131;28;20028;-73
2023/02/16 02:42:46;;;;;;;55.20;21.40;;;;;;;-1.67;100.00;98817.19;5048648;28;20036;-74
2023/02/16 02:45:20;;;;;;;57.47;22.05;;;;;;;-1.63;100.00;98813.69;5073594;28;20031;-75
2023/02/16 02:47:46;;;;;;;49.65;20.83;;;;;;;-1.57;100.00;98827.72;5071311;28;20028;-75
2023/02/16 02:50:31;;;;;;;56.20;23.92;;;;;;;-1.68;100.00;98809.28;5076776;28;20047;-75
2023/02/16 02:53:00;;;;;;;62.28;24.50;;;;;;;-1.57;100.00;98817.25;5066821;28;20028;-75
2023/02/16 03:00:56;;;;;;;67.05;25.17;;;;;;;-1.57;100.00;98812.88;5088248;28;22204;-74
2023/02/16 03:03:29;;;;;;;69.95;26.38;;;;;;;-1.60;100.00;98815.47;5060930;28;20020;-74
2023/02/16 03:06:04;;;;;;;58.35;24.77;;;;;;;-1.63;100.00;98798.84;5055861;28;20163;-75
2023/02/16 03:08:35;;;;;;;61.47;25.30;;;;;;;-1.54;100.00;98822.50;5070195;28;20525;-74
2023/02/16 03:13:59;;;;;;;62.80;23.88;;;;;;;-1.65;100.00;98819.81;5089167;28;20085;-73
2023/02/16 03:16:42;;;;;;;68.18;25.33;;;;;;;-1.69;100.00;98818.91;5060273;28;20055;-75
2023/02/16 03:30:10;;;;;;;83.18;31.10;;;;;;;-1.83;100.00;98828.44;5078167;28;20157;-74
2023/02/16 03:32:36;;;;;;;88.60;33.08;;;;;;;-1.92;100.00;98817.00;5063176;28;20123;-74
2023/02/16 03:35:04;;;;;;;88.10;36.15;;;;;;;-1.93;100.00;98823.97;5073176;28;20472;-74
2023/02/16 03:37:31;;;;;;;90.85;34.22;;;;;;;-1.85;100.00;98837.16;5075732;28;20031;-75
2023/02/16 03:42:48;;;;;;;86.65;32.65;;;;;;;-1.92;100.00;98825.75;5084948;28;20407;-74
2023/02/16 03:45:13;;;;;;;118.85;42.58;;;;;;;-1.96;100.00;98828.31;5055887;28;20028;-75
2023/02/16 03:47:39;;;;;;;106.60;38.92;;;;;;;-1.96;100.00;98823.06;5063108;28;20092;-75
2023/02/16 03:50:08;;;;;;;135.43;42.78;;;;;;;-2.05;100.00;98821.25;5068878;28;20106;-74
2023/02/16 03:52:33;;;;;;;119.53;41.75;;;;;;;-2.01;100.00;98823.03;5086951;28;20080;-74
2023/02/16 03:54:59;;;;;;;104.88;39.08;;;;;;;-2.02;100.00;98836.13;5073946;28;20464;-75
2023/02/16 03:57:25;;;;;;;95.35;35.50;;;;;;;-2.09;100.00;98810.75;5070485;28;20425;-75
2023/02/16 03:59:52;;;;;;;77.65;30.98;;;;;;;-2.06;100.00;98816.03;5066299;28;20493;-75
2023/02/16 04:02:17;;;;;;;100.20;34.83;;;;;;;-2.09;100.00;98822.09;5074304;28;20019;-75
2023/02/16 04:04:43;;;;;;;80.85;31.38;;;;;;;-2.13;100.00;98822.06;5085357;28;20103;-75
2023/02/16 04:07:08;;;;;;;67.90;27.88;;;;;;;-2.12;100.00;98816.81;5084294;28;20032;-75
2023/02/16 04:09:34;;;;;;;84.28;32.95;;;;;;;-2.17;100.00;98818.53;5082360;28;20023;-75
2023/02/16 04:14:43;;;;;;;80.88;31.08;;;;;;;-2.25;100.00;98820.22;5081879;28;20104;-75
2023/02/16 04:17:09;;;;;;;89.20;34.17;;;;;;;-2.30;100.00;98827.13;5083116;28;20463;-75
2023/02/16 04:19:36;;;;;;;71.63;30.15;;;;;;;-2.25;100.00;98838.56;5072898;28;20044;-75
2023/02/16 04:22:01;;;;;;;82.68;28.83;;;;;;;-2.32;100.00;98824.53;5064656;28;20028;-75
2023/02/16 04:24:27;;;;;;;69.13;26.50;;;;;;;-2.26;100.00;98829.81;5064676;28;20024;-75
2023/02/16 04:26:52;;;;;;;74.38;27.63;;;;;;;-2.19;100.00;98836.00;5088943;28;20038;-74
2023/02/16 04:29:18;;;;;;;71.47;26.45;;;;;;;-2.31;100.00;98821.00;5070622;28;20027;-75
2023/02/16 04:31:43;;;;;;;60.72;22.45;;;;;;;-2.37;100.00;98817.50;5062973;28;20024;-75
2023/02/16 04:34:09;;;;;;;56.17;22.40;;;;;;;-2.40;100.00;98820.09;5069191;28;20028;-75
2023/02/16 04:36:34;;;;;;;55.78;20.90;;;;;;;-2.41;100.00;98818.31;5070000;28;20031;-74
2023/02/16 04:39:00;;;;;;;49.88;20.98;;;;;;;-2.45;100.00;98827.00;5070293;28;20137;-78
2023/02/16 04:41:25;;;;;;;53.22;21.67;;;;;;;-2.53;100.00;98824.31;5075079;28;20019;-80
2023/02/16 04:43:51;;;;;;;71.18;26.52;;;;;;;-2.50;100.00;98833.94;5078729;28;20498;-78
2023/02/16 04:46:18;;;;;;;61.67;25.17;;;;;;;-2.50;100.00;98828.72;5064363;28;20028;-77
2023/02/16 04:48:44;;;;;;;66.07;24.40;;;;;;;-2.49;100.00;98820.84;5072988;28;20027;-77
2023/02/16 04:51:09;;;;;;;66.63;25.55;;;;;;;-2.45;100.00;98830.50;5092023;28;20020;-77
2023/02/16 04:53:35;;;;;;;84.22;33.25;;;;;;;-2.47;100.00;98831.34;5075892;28;20055;-77
2023/02/16 04:56:00;;;;;;;68.50;26.92;;;;;;;-2.44;100.00;98834.00;5076137;28;20055;-77
2023/02/16 04:58:26;;;;;;;101.30;34.00;;;;;;;-2.46;100.00;98830.50;5081044;28;20106;-77
2023/02/16 05:00:51;;;;;;;96.30;31.95;;;;;;;-2.40;100.00;98835.81;5055913;28;20023;-77
2023/02/16 05:03:17;;;;;;;86.63;31.30;;;;;;;-2.46;100.00;98831.34;5084102;28;20551;-77
2023/02/16 05:05:43;;;;;;;92.50;33.22;;;;;;;-2.45;100.00;98833.13;5064208;28;20028;-78
2023/02/16 05:08:09;;;;;;;92.20;32.72;;;;;;;-2.46;100.00;98830.50;5067156;28;20122;-76
2023/02/16 05:10:34;;;;;;;91.45;33.70;;;;;;;-2.47;100.00;98828.75;5056036;28;20534;-78
2023/02/16 05:15:44;;;;;;;107.72;37.17;;;;;;;-2.45;100.00;98838.34;5083655;28;20036;-78
2023/02/16 05:18:10;;;;;;;95.30;34.97;;;;;;;-2.36;100.00;98845.44;5072748;28;20479;-74
2023/02/16 05:23:20;;;;;;;80.38;31.00;;;;;;;-2.42;100.00;98845.38;5090632;28;20146;-77
2023/02/16 05:25:45;;;;;;;75.60;29.48;;;;;;;-2.50;100.00;98844.41;5079092;28;20551;-75
2023/02/16 05:28:11;;;;;;;72.15;28.70;;;;;;;-2.46;100.00;98840.97;5060502;28;20028;-77
2023/02/16 05:30:39;;;;;;;71.40;26.23;;;;;;;-2.37;100.00;98862.88;5061340;28;20784;-77
2023/02/16 05:33:04;;;;;;;64.18;24.88;;;;;;;-2.46;100.00;98856.69;5067023;28;20024;-77
2023/02/16 05:35:32;;;;;;;61.97;26.08;;;;;;;-2.44;100.00;98865.44;5084536;28;20035;-77
2023/02/16 05:37:57;;;;;;;76.68;27.52;;;;;;;-2.39;100.00;98874.22;5079810;28;20530;-78
2023/02/16 05:40:23;;;;;;;67.72;27.05;;;;;;;-2.39;100.00;98871.59;5061872;28;20032;-77
2023/02/16 05:42:52;;;;;;;82.25;34.42;;;;;;;-2.37;100.00;98878.59;5067121;28;20036;-76
2023/02/16 05:45:18;;;;;;;78.53;30.00;;;;;;;-2.28;100.00;98883.94;5083047;28;20415;-76
2023/02/16 05:47:43;;;;;;;78.88;29.58;;;;;;;-2.16;100.00;98891.06;5076651;28;20016;-78
2023/02/16 05:50:09;;;;;;;74.13;29.50;;;;;;;-2.10;100.00;98883.25;5067321;28;20131;-77
2023/02/16 05:52:35;;;;;;;81.00;34.00;;;;;;;-2.14;100.00;98865.72;5078442;28;20119;-77
2023/02/16 05:55:00;;;;;;;109.20;42.88;;;;;;;-2.11;100.00;98873.63;5069992;28;20024;-77
2023/02/16 05:57:26;;;;;;;142.40;54.45;;;;;;;-1.95;100.00;98878.13;5081266;28;20030;-74
2023/02/16 05:59:51;;;;;;;96.13;41.30;;;;;;;-1.93;100.00;98871.16;5084218;28;20028;-75
2023/02/16 06:02:17;;;;;;;99.30;42.78;;;;;;;-1.75;100.00;98866.06;5067153;28;20035;-74
2023/02/16 06:04:42;;;;;;;78.93;32.58;;;;;;;-1.63;100.00;98855.66;5084319;28;20069;-75
2023/02/16 06:07:08;;;;;;;80.30;34.97;;;;;;;-1.13;100.00;98862.97;5063202;28;20024;-75
2023/02/16 06:09:33;;;;;;;84.32;34.08;;;;;;;-0.59;100.00;98851.81;5086360;28;20032;-75
2023/02/16 06:11:59;;;;;;;74.07;32.42;;;;;;;-0.22;100.00;98834.38;5061021;28;20047;-75
2023/02/16 06:14:24;;;;;;;85.45;35.63;;;;;;;0.37;100.00;98832.63;5063647;28;20028;-74
2023/02/16 06:16:50;;;;;;;100.97;39.08;;;;;;;1.24;100.00;98816.56;5062477;28;20032;-74
2023/02/16 06:19:17;;;;;;;98.43;41.40;;;;;;;2.87;100.00;98824.94;5064762;28;20054;-75
2023/02/16 06:21:43;;;;;;;110.97;46.63;;;;;;;4.05;100.00;98789.84;5066702;28;20465;-76
2023/02/16 06:24:10;;;;;;;94.90;40.97;;;;;;;5.08;98.33;98732.25;5066755;28;20031;-76
2023/02/16 06:26:35;;;;;;;102.65;43.67;;;;;;;6.10;89.27;98724.59;5087673;28;20028;-75
2023/02/16 06:29:01;;;;;;;102.35;43.95;;;;;;;7.19;78.34;98709.16;5066034;28;20034;-75
2023/02/16 06:31:26;;;;;;;117.22;47.55;;;;;;;7.72;70.86;98682.66;5080525;28;20032;-76
2023/02/16 06:33:52;;;;;;;140.95;58.42;;;;;;;8.35;66.98;98679.66;5083717;28;20028;-76
2023/02/16 06:36:18;;;;;;;130.15;55.17;;;;;;;9.18;61.60;98637.41;5089255;28;20089;-75
2023/02/16 06:38:44;;;;;;;194.80;79.78;;;;;;;9.05;58.12;98605.88;5083533;28;20602;-75
2023/02/16 06:41:10;;;;;;;211.23;89.03;;;;;;;8.47;60.31;98593.88;5075318;28;20056;-75
2023/02/16 06:43:36;;;;;;;235.75;101.82;;;;;;;9.04;58.48;98586.38;5082022;28;20028;-75
2023/02/16 06:46:01;;;;;;;241.65;101.35;;;;;;;9.37;56.67;98580.59;5071284;28;20035;-76
2023/02/16 06:48:27;;;;;;;206.93;95.32;;;;;;;9.11;56.35;98550.47;5074381;28;20097;-76
2023/02/16 06:50:52;;;;;;;212.75;99.60;;;;;;;9.32;56.66;98553.22;5079089;28;20027;-76
2023/02/16 06:53:19;;;;;;;201.63;92.70;;;;;;;9.68;55.88;98555.25;5063190;28;20032;-74
2023/02/16 06:55:44;;;;;;;201.35;89.30;;;;;;;9.87;54.85;98535.75;5084000;28;20403;-76
2023/02/16 06:58:10;;;;;;;197.35;86.32;;;;;;;9.81;54.38;98513.69;5071025;28;20025;-75
2023/02/16 07:00:36;;;;;;;181.25;80.65;;;;;;;10.24;53.43;98507.34;5062958;28;20031;-75
2023/02/16 07:03:02;;;;;;;150.00;68.68;;;;;;;9.94;53.58;98495.31;5056139;28;20469;-75
2023/02/16 07:05:27;;;;;;;166.60;74.38;;;;;;;9.59;54.50;98482.63;5061099;28;20036;-74
2023/02/16 07:07:53;;;;;;;163.15;74.15;;;;;;;9.18;56.35;98489.72;5065321;28;20048;-74
2023/02/16 07:10:19;;;;;;;174.73;77.25;;;;;;;9.56;55.51;98493.44;5058499;28;20032;-75
2023/02/16 07:12:45;;;;;;;168.35;73.97;;;;;;;9.51;56.16;98482.06;5065984;28;20489;-73
2023/02/16 07:15:10;;;;;;;167.57;77.55;;;;;;;10.00;54.50;98497.72;5060638;28;20035;-74
2023/02/16 07:17:36;;;;;;;170.95;81.47;;;;;;;10.15;54.48;98493.53;5065899;28;20043;-75
2023/02/16 07:20:03;;;;;;;161.98;73.63;;;;;;;9.70;55.10;98475.88;5061710;28;20052;-75
2023/02/16 07:22:28;;;;;;;161.82;74.10;;;;;;;9.48;56.15;98466.19;5081356;28;20067;-75
2023/02/16 07:24:56;;;;;;;138.93;65.03;;;;;;;9.34;57.04;98466.78;5060374;28;20124;-75
2023/02/16 07:27:22;;;;;;;128.63;59.10;;;;;;;9.38;57.09;98467.53;5067909;28;20028;-75
2023/02/16 07:29:47;;;;;;;135.63;59.50;;;;;;;8.78;59.78;98447.78;5073740;28;20024;-75
2023/02/16 07:32:15;;;;;;;145.13;61.65;;;;;;;8.68;60.33;98449.06;5087000;28;20032;-75
2023/02/16 07:34:41;;;;;;;119.93;52.75;;;;;;;8.56;61.98;98446.88;5070484;28;20132;-76
2023/02/16 07:37:06;;;;;;;102.50;46.80;;;;;;;8.81;61.97;98458.31;5057949;28;20484;-76
2023/02/16 07:39:32;;;;;;;102.00;47.83;;;;;;;8.80;62.91;98461.91;5069228;28;20129;-75
2023/02/16 07:41:58;;;;;;;107.25;47.60;;;;;;;9.14;61.20;98464.94;5064788;28;20032;-77
2023/02/16 07:44:24;;;;;;;91.40;43.80;;;;;;;9.27;61.30;98459.97;5076001;28;20145;-75
2023/02/16 07:46:49;;;;;;;91.00;41.63;;;;;;;9.19;61.75;98457.63;5063613;28;20032;-76
2023/02/16 07:49:15;;;;;;;95.03;45.35;;;;;;;10.15;58.92;98481.00;5084956;28;20480;-74
2023/02/16 07:51:40;;;;;;;99.47;43.45;;;;;;;10.69;56.22;98468.69;5065295;28;20114;-75
2023/02/16 07:54:07;;;;;;;85.78;42.33;;;;;;;10.11;58.09;98441.97;5057381;28;20115;-75
2023/02/16 07:56:33;;;;;;;90.22;44.00;;;;;;;10.60;57.13;98469.16;5065195;28;20039;-75
2023/02/16 07:59:00;;;;;;;93.10;46.63;;;;;;;11.36;54.62;98493.94;5071400;28;20033;-75
2023/02/16 08:01:26;;;;;;;90.18;45.67;;;;;;;11.88;53.30;98518.09;5074338;28;20072;-75
2023/02/16 08:03:52;;;;;;;92.30;44.63;;;;;;;12.09;51.98;98522.34;5084418;28;20055;-74
2023/02/16 08:06:18;;;;;;;90.40;45.08;;;;;;;12.30;51.84;98520.38;5073387;28;20028;-75
2023/02/16 08:08:44;;;;;;;75.90;38.88;;;;;;;11.44;52.81;98507.78;5065065;28;20032;-76
2023/02/16 08:11:15;;;;;;;83.38;40.25;;;;;;;11.60;53.84;98523.09;5074390;28;20103;-74
2023/02/16 08:13:40;;;;;;;80.78;39.58;;;;;;;12.42;51.47;98525.94;5069865;28;20029;-75
2023/02/16 08:16:11;;;;;;;88.95;43.47;;;;;;;12.58;49.82;98509.84;5078191;28;20484;-75
2023/02/16 08:18:37;;;;;;;87.60;45.60;;;;;;;11.31;52.33;98501.34;5064324;28;20095;-75
2023/02/16 08:21:15;;;;;;;90.10;44.58;;;;;;;11.80;52.53;98537.28;5077437;28;20040;-76
2023/02/16 08:23:46;;;;;;;94.72;45.03;;;;;;;12.85;50.82;98550.47;5085821;28;20111;-75
2023/02/16 08:26:14;;;;;;;94.07;46.05;;;;;;;13.82;48.62;98552.94;5057215;28;20064;-76
2023/02/16 08:28:45;;;;;;;84.70;41.85;;;;;;;14.31;46.95;98546.38;5064533;28;20032;-75
2023/02/16 08:31:12;;;;;;;89.03;46.30;;;;;;;14.82;46.18;98536.06;5066677;28;20031;-75
2023/02/16 08:33:38;;;;;;;86.10;43.83;;;;;;;14.03;46.78;98517.56;5080658;28;20495;-76
2023/02/16 08:36:08;;;;;;;85.32;44.33;;;;;;;14.49;46.65;98526.41;5073017;28;20499;-76
2023/02/16 08:38:34;;;;;;;78.65;42.42;;;;;;;14.72;46.10;98519.59;5069362;28;20505;-76
2023/02/16 08:41:00;;;;;;;82.43;41.97;;;;;;;14.74;45.82;98525.75;5059373;28;20514;-76
2023/02/16 08:43:25;;;;;;;84.60;41.72;;;;;;;15.13;45.68;98527.75;5061329;28;20043;-75
2023/02/16 08:45:51;;;;;;;68.70;36.90;;;;;;;14.82;45.87;98522.59;5065452;28;20016;-76
2023/02/16 08:48:17;;;;;;;68.88;35.05;;;;;;;14.69;45.64;98508.16;5052961;28;20033;-75
2023/02/16 08:50:52;;;;;;;66.32;34.72;;;;;;;14.97;45.26;98518.91;5060996;28;20503;-75
2023/02/16 08:53:20;;;;;;;55.97;29.55;;;;;;;14.88;45.16;98512.28;5069625;28;20451;-75
2023/02/16 08:55:55;;;;;;;53.83;29.20;;;;;;;15.14;44.43;98508.78;5069980;28;20028;-74
2023/02/16 08:58:21;;;;;;;61.17;31.15;;;;;;;15.66;43.75;98511.63;5069445;28;20036;-76
2023/02/16 09:00:48;;;;;;;63.00;30.50;;;;;;;14.81;44.11;98478.63;5072391;28;20123;-75
2023/02/16 09:03:15;;;;;;;51.10;26.40;;;;;;;15.34;43.66;98494.00;5068600;28;20064;-75
2023/02/16 09:05:41;;;;;;;45.92;25.77;;;;;;;15.36;43.69;98492.06;5087195;28;20403;-75
2023/02/16 09:08:06;;;;;;;56.15;29.83;;;;;;;15.32;43.31;98493.22;5060964;28;20028;-75
2023/02/16 09:10:32;;;;;;;54.67;28.02;;;;;;;15.53;42.94;98489.16;5075389;28;20254;-76
2023/02/16 09:12:57;;;;;;;56.53;29.48;;;;;;;14.71;44.41;98471.22;5073107;28;20087;-75
2023/02/16 09:15:23;;;;;;;51.88;28.50;;;;;;;16.12;42.90;98505.78;5064898;28;20029;-75
2023/02/16 09:17:48;;;;;;;61.33;30.75;;;;;;;16.58;41.55;98485.44;5067468;28;20117;-76
2023/02/16 09:20:14;;;;;;;53.33;28.35;;;;;;;16.74;41.28;98475.25;5074184;28;20055;-76
2023/02/16 09:22:43;;;;;;;60.58;27.55;;;;;;;16.65;41.30;98480.47;5070246;28;20480;-76
2023/02/16 09:25:10;;;;;;;46.83;24.88;;;;;;;16.22;42.33;98478.06;5066749;28;20407;-76
2023/02/16 09:27:36;;;;;;;250.23;109.63;;;;;;;16.59;41.76;98475.50;5069530;28;20035;-74
2023/02/16 09:30:02;;;;;;;42.50;24.58;;;;;;;16.61;40.79;98454.66;5076375;28;20123;-74
2023/02/16 09:32:29;;;;;;;43.17;21.55;;;;;;;16.42;41.34;98467.69;5067750;28;20034;-75
2023/02/16 09:34:55;;;;;;;43.38;23.48;;;;;;;17.31;40.07;98474.69;5079975;28;20028;-76
2023/02/16 09:37:20;;;;;;;51.53;27.02;;;;;;;17.57;39.29;98464.63;5076565;28;20033;-75
2023/02/16 09:39:46;;;;;;;42.08;23.48;;;;;;;17.82;38.75;98468.06;5067858;28;20112;-76
2023/02/16 09:42:27;;;;;;;45.17;24.15;;;;;;;18.50;38.11;98470.00;5073531;28;20051;-76
2023/02/16 09:45:17;;;;;;;45.97;23.25;;;;;;;19.26;36.85;98461.06;5078040;28;20118;-75
2023/02/16 09:47:44;;;;;;;46.35;25.17;;;;;;;18.43;37.22;98415.41;5078615;28;20026;-76
2023/02/16 09:50:22;;;;;;;41.08;21.33;;;;;;;18.70;36.88;98425.91;5059997;28;20423;-77
2023/02/16 09:53:02;;;;;;;40.72;22.27;;;;;;;19.48;36.07;98444.78;5070456;28;20028;-75
2023/02/16 09:55:36;;;;;;;43.20;21.98;;;;;;;20.45;35.07;98447.28;5066077;28;20028;-75
2023/02/16 09:58:13;;;;;;;41.47;21.73;;;;;;;19.80;35.09;98410.34;5057450;28;20047;-76
2023/02/16 10:00:52;;;;;;;40.63;22.00;;;;;;;20.12;35.04;98421.13;5083595;28;20091;-76
2023/02/16 10:03:36;;;;;;;41.38;23.08;;;;;;;20.42;34.86;98420.38;5077447;28;20040;-74
2023/02/16 10:06:39;;;;;;;43.55;21.27;;;;;;;20.16;34.89;98413.59;5069281;28;20411;-76
2023/02/16 10:09:10;;;;;;;37.63;21.13;;;;;;;17.99;37.61;98363.91;5085991;28;20020;-76
2023/02/16 10:11:55;;;;;;;37.03;20.75;;;;;;;18.54;36.48;98379.34;5076428;28;20385;-75
2023/02/16 10:14:33;;;;;;;34.80;20.15;;;;;;;19.48;35.94;98404.94;5063322;28;20507;-76
2023/02/16 10:17:27;;;;;;;36.85;20.50;;;;;;;20.48;34.37;98408.97;5087622;28;20028;-76
2023/02/16 10:20:13;;;;;;;36.75;22.02;;;;;;;21.31;33.25;98404.13;5083550;28;20048;-75
2023/02/16 10:22:50;;;;;;;38.47;18.95;;;;;;;20.50;33.95;98379.78;5087080;28;20466;-75
2023/02/16 10:25:48;;;;;;;39.70;20.50;;;;;;;20.29;33.94;98363.53;5072072;28;20035;-77
2023/02/16 10:28:22;;;;;;;39.97;21.73;;;;;;;21.40;33.09;98383.34;5072474;28;20546;-77
2023/02/16 10:31:09;;;;;;;36.20;20.88;;;;;;;21.06;32.70;98366.50;5085556;28;20024;-75
2023/02/16 10:33:52;;;;;;;37.53;21.77;;;;;;;22.27;31.33;98382.28;5084252;28;20046;-75
2023/02/16 10:36:55;;;;;;;41.35;23.70;;;;;;;22.90;30.66;98385.25;5061565;28;20088;-76
2023/02/16 10:39:37;;;;;;;42.72;22.73;;;;;;;23.19;30.22;98364.94;5090346;28;20025;-74
2023/02/16 10:42:29;;;;;;;38.40;22.40;;;;;;;23.55;29.84;98375.94;5064254;28;20564;-76
2023/02/16 10:45:03;;;;;;;39.40;21.83;;;;;;;22.84;29.95;98332.13;5065340;28;20479;-77
2023/02/16 10:47:36;;;;;;;47.38;25.95;;;;;;;21.29;31.59;98293.63;5062616;28;20125;-75
2023/02/16 10:50:03;;;;;;;41.92;24.63;;;;;;;20.24;32.76;98283.38;5072099;28;20020;-76
2023/02/16 10:52:33;;;;;;;52.13;27.73;;;;;;;21.16;32.11;98309.41;5080686;28;20020;-76
2023/02/16 10:54:59;;;;;;;51.85;27.13;;;;;;;21.44;31.70;98300.41;5090595;28;20035;-76
2023/02/16 10:57:27;;;;;;;42.75;23.08;;;;;;;21.00;31.85;98296.31;5080709;28;20024;-74
2023/02/16 10:59:53;;;;;;;43.47;25.05;;;;;;;20.77;32.39;98273.94;5067518;28;20430;-74
2023/02/16 11:02:36;;;;;;;46.70;24.85;;;;;;;19.67;33.73;98265.78;5079698;28;20039;-75
2023/02/16 11:05:05;;;;;;;38.10;21.83;;;;;;;21.21;32.21;98302.53;5057213;28;20021;-75
2023/02/16 11:07:31;;;;;;;43.28;23.30;;;;;;;21.32;31.54;98285.22;5067307;28;20028;-75
2023/02/16 11:10:01;;;;;;;43.22;22.92;;;;;;;22.15;30.52;98296.22;5066509;28;20475;-76
2023/02/16 11:12:35;;;;;;;40.45;22.98;;;;;;;21.84;30.34;98271.06;5068697;28;20048;-75
2023/02/16 11:15:20;;;;;;;38.95;22.45;;;;;;;22.78;29.96;98300.00;5068053;28;20177;-75
2023/02/16 11:17:51;;;;;;;37.38;21.15;;;;;;;23.57;28.64;98309.19;5056954;28;20025;-75
2023/02/16 11:20:33;;;;;;;35.95;19.40;;;;;;;23.59;28.11;98296.25;5080888;28;20512;-75
2023/02/16 11:23:21;;;;;;;32.05;19.38;;;;;;;24.33;27.62;98303.97;5064257;28;20055;-75
2023/02/16 11:26:10;;;;;;;32.03;18.85;;;;;;;23.71;27.81;98264.94;5076562;28;20075;-74
2023/02/16 11:28:39;;;;;;;32.10;18.23;;;;;;;22.68;28.66;98241.91;5075454;28;20035;-75
2023/02/16 11:31:24;;;;;;;35.08;18.90;;;;;;;23.65;28.29;98264.72;5085856;28;20032;-76
2023/02/16 11:34:28;;;;;;;30.60;16.55;;;;;;;24.26;27.14;98273.69;5067911;28;20036;-74
2023/02/16 11:37:25;;;;;;;24.27;15.32;;;;;;;24.24;27.19;98259.31;5048261;28;20506;-75
2023/02/16 11:39:53;;;;;;;34.08;18.73;;;;;;;24.06;27.41;98250.28;5081364;28;20026;-75
2023/02/16 11:42:19;;;;;;;28.23;16.02;;;;;;;24.01;26.95;98236.25;5075505;28;20169;-74
2023/02/16 11:44:50;;;;;;;24.45;13.77;;;;;;;23.13;28.08;98204.50;5078890;28;20044;-75
2023/02/16 11:47:21;;;;;;;25.70;14.60;;;;;;;21.57;29.46;98160.19;5062131;28;20407;-76
2023/02/16 11:49:50;;;;;;;43.50;15.77;;;;;;;21.68;29.62;98171.94;5061608;28;20028;-76
2023/02/16 11:52:36;;;;;;;28.83;14.55;;;;;;;23.47;27.80;98228.38;5065054;28;20097;-76
2023/02/16 11:55:02;;;;;;;26.05;12.00;;;;;;;23.78;27.04;98224.13;5081065;28;20040;-77
2023/02/16 11:57:36;;;;;;;26.70;14.20;;;;;;;24.44;27.09;98242.63;5063092;28;20134;-76
2023/02/16 12:00:13;;;;;;;20.80;11.00;;;;;;;24.93;25.67;98219.91;5066056;28;20028;-76
2023/02/16 12:02:57;;;;;;;22.27;13.52;;;;;;;25.05;25.54;98210.34;5061554;28;20461;-77
2023/02/16 12:06:21;;;;;;;45.42;22.17;;;;;;;26.10;25.05;98237.69;5073887;28;20039;-75
2023/02/16 12:09:07;;;;;;;38.05;20.00;;;;;;;25.93;25.31;98205.88;5024556;28;20037;-76
2023/02/16 12:12:01;;;;;;;27.90;17.55;;;;;;;25.90;25.16;98195.25;5025159;28;20116;-71
2023/02/16 12:14:58;;;;;;;28.80;15.63;;;;;;;25.96;25.21;98200.03;5065985;28;20039;-75